Terminal Aerodrome Forecast
Issued by NWS

Current Version | Previous Version | Text Only | Print | Product List | Glossary On
Versions: 1 2 3 4 5 6 7 8 9 10 11 12 13 14 15 16 17 18 19 20 21 22
000
FTUS41 KPBZ 012300
TAFHLG
TAF
KHLG 012322Z 0200/0224 VRB03KT 5SM BR SKC
     FM020400 00000KT 2SM BR SCT012
     FM020800 00000KT 1SM BR BKN004
     FM021400 VRB03KT P6SM SCT025=

USA.gov is the U.S. government's official web portal to all federal, state and local government web resources and services.